Grundy, VA

2:47 PM EDT on July 27, 2016 (GMT -0400)
Gardner Va | | Change Station

Elev 1959 ft 37.03 °N, 81.94 °W | Updated 7 seconds ago

Light Thunderstorms and Rain
Light Thunderstorm Rain
78.6 °F
Feels Like 82 °F
N
1.7
Wind Variable Wind from ESE
Gusts 4.2 mph

Today
High -- | Low -- °F
--% Chance of Precip.
Yesterday
High -- | Low -- °F
Precip. -- in
Pressure 30.14 in
Visibility 0.2 miles
Clouds Overcast 200 ft
Heat Index 82 °F
Dew Point 78 °F
Humidity 99%
Rainfall in
Snow Depth Not available.
6:29 AM 8:39 PM
Last Quarter, 41% visible
METAR KJFZ 271835Z AUTO 16006KT 1/4SM -TSRA OVC002 22/22 A3014 RMK AO2 LTG DSNT ALQS P0015 T02170217
Pressure 30.14 in
Visibility 0.2 miles
Clouds Overcast 200 ft
Heat Index 82 °F
Dew Point 78 °F
Humidity 99%
Rainfall in
Snow Depth Not available.
6:29 AM 8:39 PM
Last Quarter, 41% visible
METAR KJFZ 271835Z AUTO 16006KT 1/4SM -TSRA OVC002 22/22 A3014 RMK AO2 LTG DSNT ALQS P0015 T02170217

10-Day Weather Forecast

Almanac

Astronomy

Jul. 27, 2016 Rise Set
Actual Time
Civil Twilight
Nautical Twilight
Astronomical Twilight
Moon
Length of Visible Light
Length of Day
Tomorrow will be .
, % of the Moon is Illuminated

Today's Extremes

State Highs State Lows

Community

WunderPhotos

Upload Photos

1,927,897 photos uploaded!

WunderBlog® & News

Nearby

Air Quality

  Air Quality AQ Index Pollutant
Not available.

Snow Depth

Station Depth Elevation

Earthquake Activity

City Distance Mag. Time & Date
Minimum magnitude displayed is 2.5.

Coastal Water Temperatures

Place Temperature

Stations

Nearby Weather Stations

Station Location Temp. Windchill Dew Point Humidity Wind Precip. Elev Updated Type
                   

Watches & Warnings

There are currently no watches in effect.